GJGVV EGHR-EGHR
Flight info
| Callsign | GJGVV |
|---|---|
| Flight time | 0h 13m |
| Altitude | 2000 |
| Route | LOCAL VFR |
| Aircraft | SPIT/L-VGD/A |
Departure
| Time | 2026-04-24 14:54 |
|---|---|
| Airport | Goodwood Aerodrome (EGHR) |
Arrival
| Time | 2026-04-24 15:07 |
|---|---|
| Airport | Goodwood Aerodrome (EGHR) |
| Time | Latitude | Longitude | Altitude | Speed | Heading |
|---|---|---|---|---|---|
| 2026-04-24 14:35 | 50.85918 | -0.75574 | 102 ft | 0 kts | 266° |
| 2026-04-24 14:49 | 50.85918 | -0.75575 | 102 ft | 0 kts | 261° |
| 2026-04-24 14:50 | 50.85924 | -0.75615 | 100 ft | 6 kts | 292° |
| 2026-04-24 14:50 | 50.85950 | -0.75695 | 103 ft | 10 kts | 299° |
| 2026-04-24 14:51 | 50.85965 | -0.75732 | 103 ft | 7 kts | 305° |
| 2026-04-24 14:51 | 50.86011 | -0.75792 | 101 ft | 14 kts | 339° |
| 2026-04-24 14:51 | 50.86069 | -0.75839 | 98 ft | 10 kts | 339° |
| 2026-04-24 14:51 | 50.86134 | -0.75890 | 104 ft | 7 kts | 333° |
| 2026-04-24 14:52 | 50.86175 | -0.75967 | 106 ft | 17 kts | 308° |
| 2026-04-24 14:52 | 50.86239 | -0.76099 | 101 ft | 14 kts | 306° |
| 2026-04-24 14:52 | 50.86306 | -0.76253 | 102 ft | 14 kts | 288° |
| 2026-04-24 14:52 | 50.86265 | -0.76338 | 103 ft | 17 kts | 218° |
| 2026-04-24 14:53 | 50.86228 | -0.76355 | 104 ft | 1 kts | 129° |
| 2026-04-24 14:53 | 50.86227 | -0.76352 | 104 ft | 4 kts | 124° |
| 2026-04-24 14:53 | 50.86034 | -0.76060 | 104 ft | 74 kts | 140° |
| 2026-04-24 14:54 | 50.85514 | -0.75370 | 247 ft | 107 kts | 141° |
| 2026-04-24 14:54 | 50.84877 | -0.74621 | 604 ft | 127 kts | 147° |
| 2026-04-24 14:54 | 50.84042 | -0.73833 | 846 ft | 139 kts | 148° |
| 2026-04-24 14:54 | 50.83219 | -0.73271 | 1491 ft | 130 kts | 155° |
| 2026-04-24 14:55 | 50.82285 | -0.72755 | 1713 ft | 151 kts | 158° |
| 2026-04-24 14:55 | 50.81200 | -0.72224 | 1810 ft | 172 kts | 158° |
| 2026-04-24 14:55 | 50.80021 | -0.71629 | 1880 ft | 181 kts | 154° |
| 2026-04-24 14:55 | 50.78995 | -0.70674 | 1697 ft | 160 kts | 134° |
| 2026-04-24 14:56 | 50.78380 | -0.69020 | 1483 ft | 205 kts | 103° |
| 2026-04-24 14:56 | 50.78303 | -0.66510 | 1365 ft | 244 kts | 89° |
| 2026-04-24 14:56 | 50.78330 | -0.63748 | 942 ft | 260 kts | 97° |
| 2026-04-24 14:56 | 50.78212 | -0.61853 | 789 ft | 133 kts | 96° |
| 2026-04-24 14:57 | 50.78192 | -0.60630 | 962 ft | 86 kts | 86° |
| 2026-04-24 14:57 | 50.78285 | -0.59535 | 723 ft | 112 kts | 82° |
| 2026-04-24 14:57 | 50.78464 | -0.58316 | 647 ft | 118 kts | 77° |
| 2026-04-24 14:57 | 50.78920 | -0.57058 | 781 ft | 143 kts | 48° |
| 2026-04-24 14:58 | 50.79872 | -0.56330 | 942 ft | 166 kts | 19° |
| 2026-04-24 14:58 | 50.80998 | -0.56243 | 1334 ft | 168 kts | 359° |
| 2026-04-24 14:58 | 50.82171 | -0.56848 | 1356 ft | 192 kts | 333° |
| 2026-04-24 14:58 | 50.83148 | -0.58348 | 1536 ft | 203 kts | 311° |
| 2026-04-24 14:59 | 50.84037 | -0.60193 | 1425 ft | 218 kts | 309° |
| 2026-04-24 14:59 | 50.84883 | -0.62158 | 1629 ft | 213 kts | 305° |
| 2026-04-24 14:59 | 50.85658 | -0.64063 | 1625 ft | 205 kts | 298° |
| 2026-04-24 14:59 | 50.86252 | -0.66035 | 1619 ft | 190 kts | 299° |
| 2026-04-24 15:00 | 50.86826 | -0.67858 | 1662 ft | 184 kts | 297° |
| 2026-04-24 15:00 | 50.87301 | -0.69730 | 1650 ft | 180 kts | 292° |
| 2026-04-24 15:00 | 50.87746 | -0.71574 | 1649 ft | 181 kts | 291° |
| 2026-04-24 15:00 | 50.87714 | -0.73513 | 1647 ft | 179 kts | 242° |
| 2026-04-24 15:01 | 50.86824 | -0.74748 | 1653 ft | 170 kts | 192° |
| 2026-04-24 15:01 | 50.85671 | -0.74846 | 1676 ft | 166 kts | 173° |
| 2026-04-24 15:01 | 50.84491 | -0.74793 | 1655 ft | 171 kts | 174° |
| 2026-04-24 15:01 | 50.83295 | -0.74738 | 1650 ft | 172 kts | 173° |
| 2026-04-24 15:02 | 50.82094 | -0.74686 | 1652 ft | 174 kts | 173° |
| 2026-04-24 15:02 | 50.81024 | -0.73996 | 1639 ft | 165 kts | 130° |
| 2026-04-24 15:02 | 50.80633 | -0.72361 | 1651 ft | 159 kts | 95° |
| 2026-04-24 15:02 | 50.80533 | -0.70626 | 1663 ft | 158 kts | 94° |
| 2026-04-24 15:03 | 50.80443 | -0.68888 | 1665 ft | 159 kts | 93° |
| 2026-04-24 15:03 | 50.80750 | -0.67283 | 1645 ft | 160 kts | 50° |
| 2026-04-24 15:03 | 50.81778 | -0.66619 | 1657 ft | 165 kts | 7° |
| 2026-04-24 15:03 | 50.82929 | -0.66641 | 1669 ft | 166 kts | 4° |
| 2026-04-24 15:04 | 50.84099 | -0.66667 | 1670 ft | 170 kts | 4° |
| 2026-04-24 15:04 | 50.85292 | -0.66702 | 1660 ft | 171 kts | 4° |
| 2026-04-24 15:04 | 50.86443 | -0.66748 | 1595 ft | 147 kts | 359° |
| 2026-04-24 15:04 | 50.87339 | -0.67246 | 1396 ft | 134 kts | 328° |
| 2026-04-24 15:05 | 50.87879 | -0.68381 | 1199 ft | 125 kts | 299° |
| 2026-04-24 15:05 | 50.88195 | -0.69620 | 1093 ft | 119 kts | 293° |
| 2026-04-24 15:05 | 50.88419 | -0.70974 | 1065 ft | 127 kts | 282° |
| 2026-04-24 15:05 | 50.88576 | -0.72362 | 1102 ft | 130 kts | 281° |
| 2026-04-24 15:06 | 50.88691 | -0.73886 | 1274 ft | 136 kts | 265° |
| 2026-04-24 15:06 | 50.88169 | -0.74931 | 1045 ft | 126 kts | 217° |
| 2026-04-24 15:06 | 50.87599 | -0.75887 | 803 ft | 110 kts | 220° |
| 2026-04-24 15:06 | 50.87032 | -0.76604 | 522 ft | 94 kts | 191° |
| 2026-04-24 15:07 | 50.86440 | -0.76552 | 219 ft | 84 kts | 150° |
| 2026-04-24 15:07 | 50.86005 | -0.76065 | 106 ft | 68 kts | 136° |
| 2026-04-24 15:07 | 50.85759 | -0.75725 | 100 ft | 0 kts | 278° |